Ecokeeper — SVTY — position and weather

sailwx.info

Track history (hours):
 
Tides and Currents Weather Stations Pressure Air Temp Water Temp Dewpoint Dewpoint Depression Visibility Wind Speed Wind Dir Waves Ship Positions

Ecokeeper

Last reported at 2017-May-23 07:00 UTC. Time now 2017-May-23 07:01 UTC.
Position N 37°57' E 023°37'.

Length 90 m; draft 4.3 m.

Type: Tanker. MMSI: 240689000.

Date/timePositionNaut miles runAvg speedWind from/ knotsBaromVisibWave heightAir tempDewpointWater temp
2017-May-23 07:00N 37°57' E 023°37'0 0.0
2017-May-23 06:30N 37°57' E 023°37'0 0.0
2017-May-23 06:00N 37°57' E 023°37'1 1.1
2017-May-23 05:30N 37°57' E 023°36'2 3.7
2017-May-23 05:00N 37°57' E 023°34'0 0.0
2017-May-22 18:18N 37°57' E 023°34'0 0.0
2017-May-22 18:00N 37°57' E 023°34'0 0.0
2017-May-22 17:30N 37°57' E 023°34'0 0.0
2017-May-22 17:00N 37°57' E 023°34'0 0.0
2017-May-22 16:30N 37°57' E 023°34'0 0.0
2017-May-22 16:00N 37°57' E 023°34'0 0.0
2017-May-22 15:31N 37°57' E 023°34'0 0.0
2017-May-22 15:00N 37°57' E 023°34'2 2.3
2017-May-22 14:01N 37°55' E 023°34'0 0.0
2017-May-22 13:31N 37°55' E 023°34'0 0.0
2017-May-22 13:00N 37°55' E 023°34'0 0.0
2017-May-22 12:30N 37°55' E 023°34'0 0.0
2017-May-22 12:00N 37°55' E 023°34'0 0.1
2017-May-22 11:30N 37°55' E 023°34'0 0.3
2017-May-22 11:01N 37°54' E 023°34'0 0.8
2017-May-22 10:30N 37°54' E 023°33'2 3.4
2017-May-22 10:00N 37°56' E 023°34'1 2.8
2017-May-22 09:31N 37°57' E 023°34'0 0.0
2017-May-22 09:01N 37°57' E 023°34'0 0.0
2017-May-22 08:31N 37°57' E 023°34'  
2017-May-19 13:36N 37°57' E 023°34'0 0.1
2017-May-19 13:30N 37°57' E 023°34'0 0.0
2017-May-19 13:00N 37°57' E 023°34'0 0.0
2017-May-19 12:30N 37°57' E 023°34'0 0.0
2017-May-19 12:00N 37°57' E 023°34'0 0.0
2017-May-19 11:31N 37°57' E 023°34'0 0.0
2017-May-19 11:01N 37°57' E 023°34'0 0.0
2017-May-19 10:31N 37°57' E 023°34'0 0.0
2017-May-19 10:01N 37°57' E 023°34'0 0.0
2017-May-19 09:31N 37°57' E 023°34'0 0.0
2017-May-19 09:01N 37°57' E 023°34'0 0.0
2017-May-19 08:31N 37°57' E 023°34'  
2017-May-16 18:17N 37°57' E 023°34'0 1.3
2017-May-16 18:00N 37°57' E 023°34'2 4.3
2017-May-16 17:30N 37°57' E 023°37'0 0.0
2017-May-16 17:00N 37°57' E 023°37'0 0.0
2017-May-16 16:30N 37°57' E 023°37'0 0.0
2017-May-16 16:00N 37°57' E 023°37'0 0.0
2017-May-16 15:30N 37°57' E 023°37'0 0.0
2017-May-16 15:00N 37°57' E 023°37'0 0.0
2017-May-16 14:30N 37°57' E 023°37'0 0.0
2017-May-16 13:30N 37°57' E 023°37'0 0.0
2017-May-16 13:00N 37°57' E 023°37'0 0.0
2017-May-16 12:30N 37°57' E 023°37'0 0.0
2017-May-16 12:00N 37°57' E 023°37'0 0.0
2017-May-16 11:30N 37°57' E 023°37'0 0.0
2017-May-16 11:00N 37°57' E 023°37'0 0.0
2017-May-16 10:30N 37°57' E 023°37'0 0.0
2017-May-16 10:00N 37°57' E 023°37'0 0.0
2017-May-16 09:30N 37°57' E 023°37'1 2.6
2017-May-16 09:00N 37°57' E 023°35'1 2.2
2017-May-16 08:30N 37°57' E 023°34'0 0.0
2017-May-16 08:00N 37°57' E 023°34'0 0.0
2017-May-16 07:30N 37°57' E 023°34'0 0.0
2017-May-16 07:00N 37°57' E 023°34'0 0.0
2017-May-16 06:30N 37°57' E 023°34'0 0.0
2017-May-16 06:00N 37°57' E 023°34'0 0.0
2017-May-16 05:30N 37°57' E 023°34'0 0.0
2017-May-16 05:00N 37°57' E 023°34'0 0.0
2017-May-14 13:42N 37°57' E 023°34'0 1.3
2017-May-14 13:30N 37°57' E 023°34'3 5.2
2017-May-14 13:00N 37°55' E 023°33'2 4.5
2017-May-14 12:30N 37°53' E 023°32'0 0.1
2017-May-14 12:00N 37°53' E 023°32'0 0.1
2017-May-14 11:30N 37°53' E 023°32'0 0.1
2017-May-14 11:00N 37°53' E 023°32'0 0.0
2017-May-14 10:30N 37°53' E 023°32'0 0.0
2017-May-14 10:00N 37°53' E 023°32'0 0.1
2017-May-14 09:30N 37°53' E 023°32'0 0.0
2017-May-14 09:00N 37°53' E 023°32'0 0.0
2017-May-14 08:30N 37°53' E 023°32'0 0.1
2017-May-14 08:00N 37°53' E 023°32'0 0.1
2017-May-14 07:30N 37°53' E 023°32'0 0.0
2017-May-14 07:00N 37°53' E 023°32'0 0.1
2017-May-14 06:30N 37°53' E 023°32'0 0.3
2017-May-14 06:00N 37°53' E 023°32'3 5.9
2017-May-14 05:30N 37°55' E 023°34'2 3.7
2017-May-14 05:00N 37°57' E 023°34'0 0.0
2017-May-13 14:56N 37°57' E 023°34'1 2.2
2017-May-13 14:30N 37°57' E 023°35'7 6.6
2017-May-13 13:30N 37°51' E 023°31'0 0.0
2017-May-13 13:00N 37°51' E 023°31'0 0.1
2017-May-13 12:30N 37°51' E 023°31'0 0.0
2017-May-13 12:00N 37°51' E 023°31'0 0.1
2017-May-13 11:30N 37°51' E 023°31'0 0.0
2017-May-13 11:00N 37°51' E 023°31'0 0.0
2017-May-13 10:30N 37°51' E 023°31'0 0.0
2017-May-13 10:00N 37°51' E 023°31'0 0.0
2017-May-13 09:30N 37°51' E 023°31'0 0.0
2017-May-13 09:00N 37°51' E 023°31'1 1.0
2017-May-13 08:30N 37°51' E 023°31'4 8.0
2017-May-13 08:00N 37°55' E 023°34'2 4.7
2017-May-13 07:30N 37°57' E 023°34'  
Track history (hours):
 
Tides and Currents Weather Stations Pressure Air Temp Water Temp Dewpoint Dewpoint Depression Visibility Wind Speed Wind Dir Waves Ship Positions

Ecokeeper

Last reported at 2017-May-23 07:00 UTC. Time now 2017-May-23 07:01 UTC.
Position N 37°57' E 023°37'.

Length 90 m; draft 4.3 m.

Type: Tanker. MMSI: 240689000.

Date/timePositionNaut miles runAvg speedWind from/ knotsBaromVisibWave heightAir tempDewpointWater temp
2017-May-23 07:00N 37°57' E 023°37'0 0.0
2017-May-23 06:30N 37°57' E 023°37'0 0.0
2017-May-23 06:00N 37°57' E 023°37'1 1.1
2017-May-23 05:30N 37°57' E 023°36'2 3.7
2017-May-23 05:00N 37°57' E 023°34'0 0.0
2017-May-22 18:18N 37°57' E 023°34'0 0.0
2017-May-22 18:00N 37°57' E 023°34'0 0.0
2017-May-22 17:30N 37°57' E 023°34'0 0.0
2017-May-22 17:00N 37°57' E 023°34'0 0.0
2017-May-22 16:30N 37°57' E 023°34'0 0.0
2017-May-22 16:00N 37°57' E 023°34'0 0.0
2017-May-22 15:31N 37°57' E 023°34'0 0.0
2017-May-22 15:00N 37°57' E 023°34'2 2.3
2017-May-22 14:01N 37°55' E 023°34'0 0.0
2017-May-22 13:31N 37°55' E 023°34'0 0.0
2017-May-22 13:00N 37°55' E 023°34'0 0.0
2017-May-22 12:30N 37°55' E 023°34'0 0.0
2017-May-22 12:00N 37°55' E 023°34'0 0.1
2017-May-22 11:30N 37°55' E 023°34'0 0.3
2017-May-22 11:01N 37°54' E 023°34'0 0.8
2017-May-22 10:30N 37°54' E 023°33'2 3.4
2017-May-22 10:00N 37°56' E 023°34'1 2.8
2017-May-22 09:31N 37°57' E 023°34'0 0.0
2017-May-22 09:01N 37°57' E 023°34'0 0.0
2017-May-22 08:31N 37°57' E 023°34'  
2017-May-19 13:36N 37°57' E 023°34'0 0.1
2017-May-19 13:30N 37°57' E 023°34'0 0.0
2017-May-19 13:00N 37°57' E 023°34'0 0.0
2017-May-19 12:30N 37°57' E 023°34'0 0.0
2017-May-19 12:00N 37°57' E 023°34'0 0.0
2017-May-19 11:31N 37°57' E 023°34'0 0.0
2017-May-19 11:01N 37°57' E 023°34'0 0.0
2017-May-19 10:31N 37°57' E 023°34'0 0.0
2017-May-19 10:01N 37°57' E 023°34'0 0.0
2017-May-19 09:31N 37°57' E 023°34'0 0.0
2017-May-19 09:01N 37°57' E 023°34'0 0.0
2017-May-19 08:31N 37°57' E 023°34'  
2017-May-16 18:17N 37°57' E 023°34'0 1.3
2017-May-16 18:00N 37°57' E 023°34'2 4.3
2017-May-16 17:30N 37°57' E 023°37'0 0.0
2017-May-16 17:00N 37°57' E 023°37'0 0.0
2017-May-16 16:30N 37°57' E 023°37'0 0.0
2017-May-16 16:00N 37°57' E 023°37'0 0.0
2017-May-16 15:30N 37°57' E 023°37'0 0.0
2017-May-16 15:00N 37°57' E 023°37'0 0.0
2017-May-16 14:30N 37°57' E 023°37'0 0.0
2017-May-16 13:30N 37°57' E 023°37'0 0.0
2017-May-16 13:00N 37°57' E 023°37'0 0.0
2017-May-16 12:30N 37°57' E 023°37'0 0.0
2017-May-16 12:00N 37°57' E 023°37'0 0.0
2017-May-16 11:30N 37°57' E 023°37'0 0.0
2017-May-16 11:00N 37°57' E 023°37'0 0.0
2017-May-16 10:30N 37°57' E 023°37'0 0.0
2017-May-16 10:00N 37°57' E 023°37'0 0.0
2017-May-16 09:30N 37°57' E 023°37'1 2.6
2017-May-16 09:00N 37°57' E 023°35'1 2.2
2017-May-16 08:30N 37°57' E 023°34'0 0.0
2017-May-16 08:00N 37°57' E 023°34'0 0.0
2017-May-16 07:30N 37°57' E 023°34'0 0.0
2017-May-16 07:00N 37°57' E 023°34'0 0.0
2017-May-16 06:30N 37°57' E 023°34'0 0.0
2017-May-16 06:00N 37°57' E 023°34'0 0.0
2017-May-16 05:30N 37°57' E 023°34'0 0.0
2017-May-16 05:00N 37°57' E 023°34'0 0.0
2017-May-14 13:42N 37°57' E 023°34'0 1.3
2017-May-14 13:30N 37°57' E 023°34'3 5.2
2017-May-14 13:00N 37°55' E 023°33'2 4.5
2017-May-14 12:30N 37°53' E 023°32'0 0.1
2017-May-14 12:00N 37°53' E 023°32'0 0.1
2017-May-14 11:30N 37°53' E 023°32'0 0.1
2017-May-14 11:00N 37°53' E 023°32'0 0.0
2017-May-14 10:30N 37°53' E 023°32'0 0.0
2017-May-14 10:00N 37°53' E 023°32'0 0.1
2017-May-14 09:30N 37°53' E 023°32'0 0.0
2017-May-14 09:00N 37°53' E 023°32'0 0.0
2017-May-14 08:30N 37°53' E 023°32'0 0.1
2017-May-14 08:00N 37°53' E 023°32'0 0.1
2017-May-14 07:30N 37°53' E 023°32'0 0.0
2017-May-14 07:00N 37°53' E 023°32'0 0.1
2017-May-14 06:30N 37°53' E 023°32'0 0.3
2017-May-14 06:00N 37°53' E 023°32'3 5.9
2017-May-14 05:30N 37°55' E 023°34'2 3.7
2017-May-14 05:00N 37°57' E 023°34'0 0.0
2017-May-13 14:56N 37°57' E 023°34'1 2.2
2017-May-13 14:30N 37°57' E 023°35'7 6.6
2017-May-13 13:30N 37°51' E 023°31'0 0.0
2017-May-13 13:00N 37°51' E 023°31'0 0.1
2017-May-13 12:30N 37°51' E 023°31'0 0.0
2017-May-13 12:00N 37°51' E 023°31'0 0.1
2017-May-13 11:30N 37°51' E 023°31'0 0.0
2017-May-13 11:00N 37°51' E 023°31'0 0.0
2017-May-13 10:30N 37°51' E 023°31'0 0.0
2017-May-13 10:00N 37°51' E 023°31'0 0.0
2017-May-13 09:30N 37°51' E 023°31'0 0.0
2017-May-13 09:00N 37°51' E 023°31'1 1.0
2017-May-13 08:30N 37°51' E 023°31'4 8.0
2017-May-13 08:00N 37°55' E 023°34'2 4.7
2017-May-13 07:30N 37°57' E 023°34'  

Dump ship's entire track history